Terminal Aerodrome Forecast
Issued by NWS

Home | Current Version | Previous Version | Text Only | Print | Product List | Glossary On
Versions: 1 2 3 4 5 6 7 8 9 10 11 12 13 14 15 16 17 18 19 20 21 22 23 24 25 26 27 28
180
FTUS41 KOKX 232142 AAB
TAFSWF
TAF AMD
KSWF 232142Z 2322/2424 22008KT P6SM VCSH SCT030 OVC050
     FM240700 25008KT 5SM -SHRA BR SCT014 OVC040
      TEMPO 2408/2412 3SM SHRA BR BKN014
     FM241200 30012G22KT P6SM SCT050
      AMD NOT SKED=

USA.gov is the U.S. government's official web portal to all federal, state and local government web resources and services.